Largo — PFNC — position and weather

sailwx.info

Track history (hours):
 
Tides and Currents Weather Stations Pressure Air Temp Water Temp Dewpoint Dewpoint Depression Visibility Wind Speed Wind Dir Waves Ship Positions

Largo

Last reported at 2014-Jul-18 21:12 UTC. Time now 2014-Jul-26 09:10 UTC.
Position N 36°44' E 005°09'.

Length 91 m; draft 6.6 m.

Type: Cargo ship. MMSI: 245645000.

Date/timePositionNaut miles runAvg speedWind from/ knotsBaromVisibWave heightAir tempDewpointWater temp
2014-Jul-18 21:12N 36°44' E 005°09'0 0.0
2014-Jul-18 13:33N 36°44' E 005°09'0 0.0
2014-Jul-18 10:15N 36°44' E 005°09'0 0.0
2014-Jul-18 08:24N 36°44' E 005°09'0 0.0
2014-Jul-18 07:30N 36°44' E 005°09'0 0.0
2014-Jul-18 06:33N 36°44' E 005°09'0 0.0
2014-Jul-18 05:06N 36°44' E 005°09'0 0.0
2014-Jul-18 03:33N 36°44' E 005°09'0 0.0
2014-Jul-17 23:24N 36°44' E 005°09'0 0.0
2014-Jul-16 05:30N 36°44' E 005°09'3 0.1
2014-Jul-14 20:14N 36°47' E 005°09'10 5.9
2014-Jul-14 18:33N 36°52' E 004°58'9 9.0
2014-Jul-14 17:34N 36°56' E 004°48'10 8.9
2014-Jul-14 16:28N 36°57' E 004°36'8 9.2
2014-Jul-14 15:33N 36°57' E 004°26'9 8.6
2014-Jul-14 14:33N 36°58' E 004°15'9 9.0
2014-Jul-14 13:33N 36°58' E 004°04'9 8.7
2014-Jul-14 12:33N 36°58' E 003°53'8 8.4
2014-Jul-14 11:33N 36°57' E 003°42'27 8.9
2014-Jul-14 08:29N 36°55' E 003°08'1310.0
2014-Jul-14 07:07N 36°52' E 002°51'6 9.8
2014-Jul-14 06:33N 36°51' E 002°45'10 9.6
2014-Jul-14 05:30N 36°50' E 002°32'37 9.5
2014-Jul-14 01:33N 36°41' E 001°47'4110.0
2014-Jul-13 21:26N 36°32' E 000°57'126 2.7
2014-Jul-11 23:04N 38°36' E 000°30'  
Track history (hours):
 
Tides and Currents Weather Stations Pressure Air Temp Water Temp Dewpoint Dewpoint Depression Visibility Wind Speed Wind Dir Waves Ship Positions

Largo

Last reported at 2014-Jul-18 21:12 UTC. Time now 2014-Jul-26 09:10 UTC.
Position N 36°44' E 005°09'.

Length 91 m; draft 6.6 m.

Type: Cargo ship. MMSI: 245645000.

Date/timePositionNaut miles runAvg speedWind from/ knotsBaromVisibWave heightAir tempDewpointWater temp
2014-Jul-18 21:12N 36°44' E 005°09'0 0.0
2014-Jul-18 13:33N 36°44' E 005°09'0 0.0
2014-Jul-18 10:15N 36°44' E 005°09'0 0.0
2014-Jul-18 08:24N 36°44' E 005°09'0 0.0
2014-Jul-18 07:30N 36°44' E 005°09'0 0.0
2014-Jul-18 06:33N 36°44' E 005°09'0 0.0
2014-Jul-18 05:06N 36°44' E 005°09'0 0.0
2014-Jul-18 03:33N 36°44' E 005°09'0 0.0
2014-Jul-17 23:24N 36°44' E 005°09'0 0.0
2014-Jul-16 05:30N 36°44' E 005°09'3 0.1
2014-Jul-14 20:14N 36°47' E 005°09'10 5.9
2014-Jul-14 18:33N 36°52' E 004°58'9 9.0
2014-Jul-14 17:34N 36°56' E 004°48'10 8.9
2014-Jul-14 16:28N 36°57' E 004°36'8 9.2
2014-Jul-14 15:33N 36°57' E 004°26'9 8.6
2014-Jul-14 14:33N 36°58' E 004°15'9 9.0
2014-Jul-14 13:33N 36°58' E 004°04'9 8.7
2014-Jul-14 12:33N 36°58' E 003°53'8 8.4
2014-Jul-14 11:33N 36°57' E 003°42'27 8.9
2014-Jul-14 08:29N 36°55' E 003°08'1310.0
2014-Jul-14 07:07N 36°52' E 002°51'6 9.8
2014-Jul-14 06:33N 36°51' E 002°45'10 9.6
2014-Jul-14 05:30N 36°50' E 002°32'37 9.5
2014-Jul-14 01:33N 36°41' E 001°47'4110.0
2014-Jul-13 21:26N 36°32' E 000°57'126 2.7
2014-Jul-11 23:04N 38°36' E 000°30'  

Dump ship's entire track history